createdAt,value
2023-01-23T00:01:21.040Z,61.00
2023-01-23T00:03:48.374Z,53.90
2023-01-23T00:06:16.967Z,52.60
2023-01-23T00:09:10.307Z,57.00
2023-01-23T00:11:37.784Z,54.92
2023-01-23T00:14:12.995Z,58.28
2023-01-23T00:16:41.534Z,55.72
2023-01-23T00:19:10.734Z,53.55
2023-01-23T00:21:37.957Z,61.20
2023-01-23T00:24:07.836Z,60.55
2023-01-23T00:26:39.058Z,55.90
2023-01-23T00:29:06.929Z,62.53
2023-01-23T00:31:41.276Z,62.70
2023-01-23T00:34:12.396Z,60.13
2023-01-23T00:36:49.923Z,57.60
2023-01-23T00:39:22.666Z,66.05
2023-01-23T00:41:52.115Z,53.00
2023-01-23T00:44:20.622Z,54.10
2023-01-23T00:46:48.948Z,53.95
2023-01-23T00:49:18.126Z,50.38
2023-01-23T00:51:46.573Z,50.88
2023-01-23T00:54:14.068Z,56.13
2023-01-23T00:56:41.470Z,52.67
2023-01-23T00:59:09.026Z,51.38
2023-01-23T01:01:37.376Z,48.53
2023-01-23T01:04:04.967Z,52.47
2023-01-23T01:06:33.561Z,51.28
2023-01-23T01:09:00.966Z,49.03
2023-01-23T01:11:29.318Z,48.20
2023-01-23T01:13:56.753Z,46.45
2023-01-23T01:16:27.391Z,50.47
2023-01-23T01:18:55.049Z,45.80
2023-01-23T01:21:22.634Z,44.03
2023-01-23T01:23:51.139Z,45.33
2023-01-23T01:26:18.824Z,45.70
2023-01-23T01:28:48.512Z,42.22
2023-01-23T01:31:16.771Z,43.58
2023-01-23T01:33:45.622Z,42.65
2023-01-23T01:36:15.726Z,42.80
2023-01-23T01:38:43.382Z,42.00
2023-01-23T01:41:11.757Z,44.03
2023-01-23T01:43:39.625Z,42.78
2023-01-23T01:46:24.295Z,40.47
2023-01-23T01:49:10.084Z,38.88
2023-01-23T01:52:05.874Z,37.97
2023-01-23T01:54:59.366Z,38.42
2023-01-23T01:57:40.740Z,40.13
2023-01-23T02:00:18.728Z,42.78
2023-01-23T02:02:54.373Z,41.25
2023-01-23T02:05:28.243Z,40.53
2023-01-23T02:08:18.485Z,43.35
2023-01-23T02:10:47.183Z,43.45
2023-01-23T02:13:37.159Z,44.40
2023-01-23T02:16:08.916Z,46.75
2023-01-23T02:18:39.246Z,49.97
2023-01-23T02:21:08.557Z,45.15
2023-01-23T02:23:54.174Z,47.85
2023-01-23T02:26:38.066Z,50.72
2023-01-23T02:29:07.562Z,45.58
2023-01-23T02:31:35.730Z,48.17
2023-01-23T02:34:02.816Z,46.78
2023-01-23T02:36:34.002Z,51.35
2023-01-23T02:39:17.386Z,49.97
2023-01-23T02:41:48.672Z,51.47
2023-01-23T02:44:27.791Z,47.38
2023-01-23T02:46:56.828Z,43.85
2023-01-23T02:49:24.380Z,44.53
2023-01-23T02:51:54.231Z,47.25
2023-01-23T02:54:22.937Z,45.35
2023-01-23T02:56:51.569Z,43.83
2023-01-23T02:59:38.801Z,44.58
2023-01-23T03:02:06.611Z,44.97
2023-01-23T03:04:34.090Z,46.05
2023-01-23T03:07:03.501Z,44.35
2023-01-23T03:09:30.936Z,42.75
2023-01-23T03:11:59.425Z,46.95
2023-01-23T03:14:27.352Z,45.78
2023-01-23T03:16:55.551Z,45.67
2023-01-23T03:19:25.344Z,46.03
2023-01-23T03:21:53.509Z,45.53
2023-01-23T03:24:21.877Z,46.20
2023-01-23T03:26:57.246Z,44.63
2023-01-23T03:29:44.671Z,45.20
2023-01-23T03:32:13.883Z,45.17
2023-01-23T03:34:41.945Z,43.90
2023-01-23T03:37:17.742Z,44.53
2023-01-23T03:40:04.281Z,42.05
2023-01-23T03:42:35.149Z,44.05
2023-01-23T03:45:03.342Z,44.00
2023-01-23T03:47:30.831Z,42.85
2023-01-23T03:49:58.203Z,45.78
2023-01-23T03:52:26.772Z,44.45
2023-01-23T03:54:54.227Z,44.38
2023-01-23T03:57:21.771Z,42.75
2023-01-23T03:59:49.253Z,45.25
2023-01-23T04:02:16.958Z,42.20
2023-01-23T04:04:44.685Z,42.72
2023-01-23T04:07:12.247Z,42.65
2023-01-23T04:09:39.776Z,42.63
2023-01-23T04:12:09.067Z,45.40
2023-01-23T04:14:37.897Z,40.55
2023-01-23T04:17:06.129Z,39.20
2023-01-23T04:19:34.442Z,39.60
2023-01-23T04:22:03.542Z,42.13
2023-01-23T04:24:30.972Z,41.63
2023-01-23T04:26:58.539Z,41.92
2023-01-23T04:29:26.956Z,40.42
2023-01-23T04:31:54.464Z,41.88
2023-01-23T04:34:21.893Z,42.60
2023-01-23T04:36:49.334Z,41.20
2023-01-23T04:39:18.712Z,38.63
2023-01-23T04:41:52.385Z,41.40
2023-01-23T04:44:22.733Z,39.20
2023-01-23T04:46:53.559Z,39.90
2023-01-23T04:49:22.943Z,37.85
2023-01-23T04:51:53.831Z,40.42
2023-01-23T04:54:22.463Z,39.65
2023-01-23T04:56:50.215Z,38.53
2023-01-23T04:59:18.396Z,38.53
2023-01-23T05:01:46.034Z,37.97
2023-01-23T05:04:14.625Z,39.55
2023-01-23T05:06:42.269Z,43.15
2023-01-23T05:09:09.827Z,42.75
2023-01-23T05:11:38.304Z,39.65
2023-01-23T05:14:10.871Z,39.58
2023-01-23T05:16:38.568Z,43.07
2023-01-23T05:19:07.446Z,42.30
2023-01-23T05:21:34.896Z,42.90
2023-01-23T05:24:02.147Z,39.05
2023-01-23T05:26:29.628Z,38.47
2023-01-23T05:28:58.350Z,36.67
2023-01-23T05:31:26.240Z,34.95
2023-01-23T05:33:54.636Z,34.63
2023-01-23T05:36:22.037Z,34.28
2023-01-23T05:38:49.471Z,34.25
2023-01-23T05:41:28.629Z,33.33
2023-01-23T05:43:56.161Z,35.63
2023-01-23T05:46:23.805Z,32.78
2023-01-23T05:48:52.331Z,32.80
2023-01-23T05:51:21.925Z,32.95
2023-01-23T05:53:50.294Z,31.15
2023-01-23T05:56:17.894Z,31.00
2023-01-23T05:58:46.162Z,31.50
2023-01-23T06:01:14.729Z,30.20
2023-01-23T06:03:42.477Z,31.65
2023-01-23T06:06:10.175Z,31.17
2023-01-23T06:08:37.272Z,31.27
2023-01-23T06:11:10.562Z,33.30
2023-01-23T06:13:39.079Z,31.58
2023-01-23T06:16:10.540Z,32.20
2023-01-23T06:18:40.502Z,32.92
2023-01-23T06:21:07.852Z,33.15
2023-01-23T06:23:36.148Z,33.17
2023-01-23T06:26:05.006Z,33.05
2023-01-23T06:28:32.580Z,33.55
2023-01-23T06:31:04.331Z,33.28
2023-01-23T06:33:33.625Z,34.60
2023-01-23T06:36:02.725Z,32.70
2023-01-23T06:38:32.355Z,35.15
2023-01-23T06:40:59.816Z,38.17
2023-01-23T06:43:27.378Z,37.08
2023-01-23T06:45:55.722Z,35.78
2023-01-23T06:48:23.133Z,32.92
2023-01-23T06:50:52.975Z,36.63
2023-01-23T06:53:20.996Z,33.28
2023-01-23T06:55:48.641Z,36.10
2023-01-23T06:58:19.592Z,34.35
2023-01-23T07:00:47.049Z,35.00
2023-01-23T07:03:15.988Z,38.40
2023-01-23T07:05:44.613Z,36.88
2023-01-23T07:08:12.502Z,36.50
2023-01-23T07:10:40.798Z,37.17
2023-01-23T07:13:10.950Z,36.80
2023-01-23T07:15:47.333Z,40.13
2023-01-23T07:18:15.994Z,39.08
2023-01-23T07:20:47.922Z,37.90
2023-01-23T07:23:16.207Z,38.42
2023-01-23T07:25:45.064Z,34.47
2023-01-23T07:28:13.575Z,35.67
2023-01-23T07:30:42.081Z,35.55
2023-01-23T07:33:10.613Z,36.22
2023-01-23T07:35:40.396Z,35.53
2023-01-23T07:38:08.107Z,33.85
2023-01-23T07:40:39.583Z,34.15
2023-01-23T07:43:07.270Z,35.15
2023-01-23T07:45:36.723Z,37.47
2023-01-23T07:48:12.513Z,36.92
2023-01-23T07:50:41.662Z,37.42
2023-01-23T07:53:09.326Z,38.72
2023-01-23T07:55:43.183Z,38.50
2023-01-23T07:58:10.876Z,37.88
2023-01-23T08:00:46.253Z,39.35
2023-01-23T08:03:15.033Z,41.50
2023-01-23T08:05:43.959Z,41.03
2023-01-23T08:08:13.739Z,40.72
2023-01-23T08:10:42.227Z,40.42
2023-01-23T08:13:10.380Z,41.22
2023-01-23T08:15:46.880Z,40.33
2023-01-23T08:18:14.438Z,39.28
2023-01-23T08:20:44.445Z,39.92
2023-01-23T08:23:12.547Z,40.22
2023-01-23T08:25:41.005Z,40.63
2023-01-23T08:28:10.512Z,40.95
2023-01-23T08:30:38.840Z,39.53
2023-01-23T08:33:07.047Z,38.78
2023-01-23T08:35:38.696Z,38.72
2023-01-23T08:38:08.467Z,38.78
2023-01-23T08:40:37.412Z,39.50
2023-01-23T08:43:06.023Z,41.58
2023-01-23T08:45:35.399Z,103.10
2023-01-23T08:48:04.182Z,100.93
2023-01-23T08:50:32.384Z,72.10
2023-01-23T08:53:01.218Z,52.60
2023-01-23T08:55:29.593Z,55.60
2023-01-23T08:58:03.455Z,56.63
2023-01-23T09:00:33.698Z,102.88
2023-01-23T09:03:02.061Z,75.82
2023-01-23T09:05:30.651Z,67.75
2023-01-23T09:08:01.946Z,74.35
2023-01-23T09:10:29.575Z,72.43
2023-01-23T09:12:59.670Z,77.53
2023-01-23T09:15:27.311Z,80.03
2023-01-23T09:17:55.060Z,77.90
2023-01-23T09:20:23.283Z,76.90
2023-01-23T09:22:52.800Z,76.45
2023-01-23T09:25:21.732Z,61.40
2023-01-23T09:27:49.636Z,71.13
2023-01-23T09:30:17.685Z,89.00
2023-01-23T09:32:45.565Z,85.93
2023-01-23T09:35:13.545Z,68.28
2023-01-23T09:37:59.778Z,68.00
2023-01-23T09:40:31.609Z,62.55
2023-01-23T09:43:06.207Z,53.67
2023-01-23T09:45:34.471Z,47.22
2023-01-23T09:48:21.534Z,50.38
2023-01-23T09:51:26.393Z,51.00
2023-01-23T09:53:59.805Z,41.42
2023-01-23T09:59:07.392Z,45.63
2023-01-23T10:01:35.133Z,44.38
2023-01-23T10:04:04.208Z,50.28
2023-01-23T10:06:39.713Z,50.22
2023-01-23T10:09:43.279Z,47.88
2023-01-23T10:12:39.772Z,47.03
2023-01-23T10:15:24.420Z,51.50
2023-01-23T10:18:03.365Z,50.97
2023-01-23T10:20:50.473Z,43.78
2023-01-23T10:23:46.121Z,40.90
2023-01-23T10:26:22.643Z,50.42
2023-01-23T10:28:54.714Z,49.08
2023-01-23T10:31:50.664Z,42.83
2023-01-23T10:34:35.186Z,52.50
2023-01-23T10:37:37.699Z,48.55
2023-01-23T10:40:13.759Z,48.85
2023-01-23T10:42:41.716Z,50.05
2023-01-23T10:45:23.137Z,47.47
2023-01-23T10:47:55.089Z,51.22
2023-01-23T10:50:43.384Z,50.28
2023-01-23T10:53:21.203Z,48.20
2023-01-23T10:55:51.301Z,49.88
2023-01-23T10:58:41.992Z,48.42
2023-01-23T11:01:32.950Z,43.70
2023-01-23T11:04:20.396Z,40.80
2023-01-23T11:07:08.972Z,36.95
2023-01-23T11:10:21.217Z,36.67
2023-01-23T11:12:54.675Z,36.10
2023-01-23T11:18:02.520Z,35.15
2023-01-23T11:20:43.782Z,35.72
2023-01-23T11:23:14.312Z,35.60
2023-01-23T11:25:47.625Z,35.53
2023-01-23T11:28:35.637Z,36.45
2023-01-23T11:31:22.806Z,35.45
2023-01-23T11:33:57.037Z,34.67
2023-01-23T11:36:43.170Z,36.80
2023-01-23T11:39:22.737Z,37.20
2023-01-23T11:41:52.642Z,37.53
2023-01-23T11:44:24.400Z,35.40
2023-01-23T11:47:29.439Z,36.92
2023-01-23T11:50:28.338Z,36.20
2023-01-23T11:53:02.773Z,37.22
2023-01-23T11:55:57.929Z,39.45
2023-01-23T11:59:03.840Z,39.42
2023-01-23T12:01:55.004Z,40.00
2023-01-23T12:04:47.100Z,39.33
2023-01-23T12:07:23.540Z,41.45
2023-01-23T12:09:51.153Z,43.83
2023-01-23T12:12:51.980Z,42.47
2023-01-23T12:15:32.928Z,42.38
2023-01-23T12:18:09.553Z,40.35
2023-01-23T12:20:49.674Z,44.10
2023-01-23T12:23:33.507Z,43.17
2023-01-23T12:26:25.075Z,43.70
2023-01-23T12:29:11.215Z,42.13
2023-01-23T12:32:12.492Z,42.08
2023-01-23T12:34:59.876Z,44.42
2023-01-23T12:37:53.548Z,43.60
2023-01-23T12:43:57.590Z,42.72
2023-01-23T12:47:00.202Z,47.28
2023-01-23T12:49:49.628Z,45.65
2023-01-23T12:52:26.199Z,43.90
2023-01-23T12:55:25.400Z,42.53
2023-01-23T12:58:06.898Z,43.08
2023-01-23T13:00:43.150Z,44.95
2023-01-23T13:03:45.457Z,44.75
2023-01-23T13:06:50.953Z,43.55
2023-01-23T13:09:45.449Z,42.03
2023-01-23T13:12:22.274Z,41.28
2023-01-23T13:15:15.046Z,40.58
2023-01-23T13:17:59.463Z,42.75
2023-01-23T13:20:53.125Z,43.75
2023-01-23T13:23:29.839Z,43.53
2023-01-23T13:26:16.629Z,42.20
2023-01-23T13:28:55.376Z,42.88
2023-01-23T13:31:47.423Z,42.95
2023-01-23T13:34:17.965Z,46.85
2023-01-23T13:36:47.368Z,45.67
2023-01-23T13:39:22.306Z,45.60
2023-01-23T13:42:14.605Z,45.65
2023-01-23T13:45:19.288Z,44.72
2023-01-23T14:30:31.865Z,49.42
2023-01-23T14:32:59.657Z,48.30
2023-01-23T14:35:32.044Z,49.80
2023-01-23T14:38:05.340Z,56.78
2023-01-23T14:40:46.790Z,61.95
2023-01-23T14:43:28.095Z,61.55
2023-01-23T14:46:25.329Z,56.13
2023-01-23T14:48:55.684Z,52.65
2023-01-23T14:51:27.143Z,58.67
2023-01-23T14:54:06.476Z,54.15
2023-01-23T14:56:39.842Z,54.37
2023-01-23T14:59:19.666Z,56.45
2023-01-23T15:02:13.197Z,53.78
2023-01-23T15:05:07.521Z,56.00
2023-01-23T15:07:36.261Z,50.95
2023-01-23T15:10:05.048Z,49.17
2023-01-23T15:12:33.718Z,49.30
2023-01-23T15:15:01.257Z,50.95
2023-01-23T15:17:28.719Z,52.70
2023-01-23T15:19:55.935Z,51.58
2023-01-23T15:22:29.445Z,55.95
2023-01-23T15:27:34.076Z,45.97
2023-01-23T15:30:38.423Z,48.42
2023-01-23T15:33:26.516Z,50.25
2023-01-23T15:36:05.747Z,52.95
2023-01-23T15:38:33.539Z,51.70
2023-01-23T15:41:09.728Z,52.67
2023-01-23T15:43:38.563Z,60.60
2023-01-23T15:46:13.449Z,61.45
2023-01-23T15:48:41.028Z,58.72
2023-01-23T15:51:12.577Z,57.92
2023-01-23T15:53:42.103Z,58.72
2023-01-23T15:56:29.278Z,58.60
2023-01-23T15:59:00.994Z,57.55
2023-01-23T16:01:29.841Z,59.25
2023-01-23T16:03:57.278Z,59.88
2023-01-23T16:06:24.764Z,58.70
2023-01-23T16:09:00.924Z,57.55
2023-01-23T16:11:35.130Z,59.13
2023-01-23T16:14:03.389Z,65.47
2023-01-23T16:16:30.882Z,59.45
2023-01-23T16:18:57.983Z,61.47
2023-01-23T16:21:30.602Z,71.60
2023-01-23T16:23:59.712Z,67.38
2023-01-23T16:26:28.178Z,54.50
2023-01-23T16:29:08.706Z,56.38
2023-01-23T16:31:40.846Z,58.45
2023-01-23T16:34:08.251Z,55.92
2023-01-23T16:36:35.762Z,59.88
2023-01-23T16:39:03.552Z,80.68
2023-01-23T16:41:32.079Z,71.40
2023-01-23T16:43:59.623Z,68.60
2023-01-23T16:46:28.217Z,93.88
2023-01-23T16:48:57.297Z,111.13
2023-01-23T16:51:26.128Z,82.45
2023-01-23T16:53:58.628Z,76.13
2023-01-23T16:56:37.224Z,75.38
2023-01-23T16:59:08.440Z,82.10
2023-01-23T17:01:40.764Z,67.57
2023-01-23T17:04:08.028Z,82.28
2023-01-23T17:06:35.892Z,84.72
2023-01-23T17:09:03.184Z,72.57
2023-01-23T17:11:36.829Z,67.57
2023-01-23T17:14:14.874Z,74.65
2023-01-23T17:16:51.411Z,59.53
2023-01-23T17:19:31.755Z,59.67
2023-01-23T17:22:02.215Z,63.00
2023-01-23T17:24:31.428Z,51.20
2023-01-23T17:27:00.161Z,51.42
2023-01-23T17:29:27.806Z,50.47
2023-01-23T17:31:55.993Z,60.65
2023-01-23T17:34:28.335Z,65.25
2023-01-23T17:37:19.961Z,58.40
2023-01-23T17:39:47.674Z,81.03
2023-01-23T17:42:15.826Z,69.28
2023-01-23T17:44:44.157Z,55.63
2023-01-23T17:47:19.623Z,54.33
2023-01-23T17:49:57.291Z,55.58
2023-01-23T17:52:27.768Z,54.60
2023-01-23T17:54:56.519Z,70.15
2023-01-23T17:57:24.182Z,54.53
2023-01-23T17:59:56.512Z,50.08
2023-01-23T18:02:28.937Z,51.07
2023-01-23T18:04:58.113Z,55.78
2023-01-23T18:07:27.590Z,68.05
2023-01-23T18:09:56.797Z,70.20
2023-01-23T18:12:41.350Z,65.88
2023-01-23T18:15:42.284Z,63.33
2023-01-23T18:18:18.150Z,56.47
2023-01-23T18:20:48.637Z,54.38
2023-01-23T18:23:17.042Z,55.65
2023-01-23T18:25:48.178Z,57.03
2023-01-23T18:28:24.463Z,55.00
2023-01-23T18:31:20.786Z,53.78
2023-01-23T18:34:10.757Z,53.92
2023-01-23T18:36:49.989Z,58.60
2023-01-23T18:39:37.257Z,62.50
2023-01-23T18:42:46.544Z,64.57
2023-01-23T18:45:23.847Z,61.13
2023-01-23T18:47:56.452Z,57.83
2023-01-23T18:50:31.843Z,59.20
2023-01-23T18:53:35.110Z,63.72
2023-01-23T18:56:23.200Z,67.20
2023-01-23T18:59:11.689Z,64.20
2023-01-23T19:01:51.118Z,68.88
2023-01-23T19:04:21.791Z,66.72
2023-01-23T19:06:51.629Z,56.00
2023-01-23T19:09:22.632Z,58.88
2023-01-23T19:12:04.871Z,57.03
2023-01-23T19:14:48.716Z,53.28
2023-01-23T19:17:53.667Z,50.63
2023-01-23T19:20:41.221Z,61.53
2023-01-23T19:23:46.826Z,56.40
2023-01-23T19:26:18.555Z,57.22
2023-01-23T19:28:50.618Z,52.88
2023-01-23T19:31:30.435Z,50.10
2023-01-23T19:34:00.533Z,58.40
2023-01-23T19:36:31.505Z,60.63
2023-01-23T19:39:04.958Z,64.35
2023-01-23T19:41:38.852Z,55.20
2023-01-23T19:44:08.451Z,52.20
2023-01-23T19:46:36.359Z,49.20
2023-01-23T19:49:07.810Z,48.58
2023-01-23T19:51:37.957Z,48.45
2023-01-23T19:54:12.827Z,47.17
2023-01-23T19:56:41.470Z,48.65
2023-01-23T19:59:10.159Z,49.13
2023-01-23T20:01:47.425Z,47.75
2023-01-23T20:04:21.008Z,47.33
2023-01-23T20:09:23.465Z,47.92
2023-01-23T20:11:53.164Z,46.50
2023-01-23T20:14:22.906Z,51.47
2023-01-23T20:16:51.452Z,45.70
2023-01-23T20:19:20.966Z,47.45
2023-01-23T20:21:55.775Z,46.63
2023-01-23T20:24:23.821Z,46.45
2023-01-23T20:26:53.337Z,42.03
2023-01-23T20:29:21.876Z,44.60
2023-01-23T20:31:52.190Z,45.50
2023-01-23T20:34:20.486Z,45.15
2023-01-23T20:36:48.366Z,41.35
2023-01-23T20:39:17.869Z,44.97
2023-01-23T20:41:53.555Z,45.90
2023-01-23T20:44:21.615Z,44.58
2023-01-23T20:46:49.884Z,56.53
2023-01-23T20:49:17.799Z,69.93
2023-01-23T20:51:45.960Z,70.03
2023-01-23T20:54:15.754Z,63.60
2023-01-23T20:56:50.118Z,57.58
2023-01-23T20:59:22.308Z,64.95
2023-01-23T21:02:09.184Z,56.78
2023-01-23T21:04:42.316Z,48.67
2023-01-23T21:07:11.836Z,59.83
2023-01-23T21:09:39.728Z,57.58
2023-01-23T21:12:10.433Z,86.80
2023-01-23T21:14:38.191Z,77.13
2023-01-23T21:17:06.408Z,66.95
2023-01-23T21:19:40.631Z,62.10
2023-01-23T21:22:08.701Z,67.18
2023-01-23T21:24:38.368Z,61.10
2023-01-23T21:27:08.042Z,61.10
2023-01-23T21:29:35.583Z,63.67
2023-01-23T21:32:02.812Z,66.25
2023-01-23T21:34:32.531Z,58.35
2023-01-23T21:37:00.788Z,48.60
2023-01-23T21:39:28.367Z,45.90
2023-01-23T21:42:09.012Z,46.08
2023-01-23T21:44:36.429Z,44.03
2023-01-23T21:47:03.964Z,45.33
2023-01-23T21:49:31.620Z,57.75
2023-01-23T21:51:59.976Z,63.55
2023-01-23T21:54:28.259Z,62.60
2023-01-23T21:56:56.770Z,56.78
2023-01-23T21:59:24.129Z,53.60
2023-01-23T22:01:51.763Z,49.38
2023-01-23T22:04:23.536Z,50.75
2023-01-23T22:06:56.853Z,56.42
2023-01-23T22:09:25.947Z,50.90
2023-01-23T22:11:57.593Z,48.15
2023-01-23T22:14:25.094Z,45.95
2023-01-23T22:16:52.291Z,50.17
2023-01-23T22:19:25.382Z,50.78
2023-01-23T22:21:54.821Z,57.00
2023-01-23T22:24:24.519Z,50.83
2023-01-23T22:26:52.888Z,52.60
2023-01-23T22:29:20.354Z,50.80
2023-01-23T22:31:47.786Z,49.05
2023-01-23T22:34:16.302Z,50.42
2023-01-23T22:36:43.777Z,49.30
2023-01-23T22:39:18.248Z,50.25
2023-01-23T22:41:47.363Z,47.08
2023-01-23T22:44:14.904Z,47.08
2023-01-23T22:46:45.108Z,44.03
2023-01-23T22:49:12.272Z,41.13
2023-01-23T22:51:39.656Z,41.30
2023-01-23T22:54:08.231Z,39.22
2023-01-23T22:56:35.652Z,41.53
2023-01-23T22:59:05.238Z,43.40
2023-01-23T23:01:33.649Z,41.95
2023-01-23T23:04:01.259Z,40.65
2023-01-23T23:06:29.634Z,40.35
2023-01-23T23:08:56.831Z,37.90
2023-01-23T23:11:29.029Z,37.72
2023-01-23T23:13:57.544Z,36.28
2023-01-23T23:16:31.649Z,35.80
2023-01-23T23:19:01.971Z,36.47
2023-01-23T23:21:34.624Z,36.88
2023-01-23T23:24:09.006Z,37.47
2023-01-23T23:26:36.476Z,37.83
2023-01-23T23:29:05.458Z,38.92
2023-01-23T23:31:34.050Z,39.40
2023-01-23T23:34:01.328Z,43.97
2023-01-23T23:36:28.774Z,44.70
2023-01-23T23:38:56.205Z,42.88
2023-01-23T23:41:23.905Z,43.47
2023-01-23T23:43:51.444Z,43.85
2023-01-23T23:46:20.037Z,40.05
2023-01-23T23:48:48.331Z,40.42
2023-01-23T23:51:19.002Z,37.83
2023-01-23T23:53:47.076Z,40.25
2023-01-23T23:56:21.771Z,41.90
2023-01-23T23:58:49.353Z,40.10
